createdAt,value
2023-03-26T04:03:33.171Z,3.45
2023-03-26T04:07:39.147Z,3.00
2023-03-26T04:11:41.680Z,3.10
2023-03-26T04:16:10.683Z,3.22
2023-03-26T04:20:15.593Z,3.30
2023-03-26T04:24:22.344Z,3.25
2023-03-26T04:29:02.576Z,3.65
2023-03-26T04:33:07.211Z,3.83
2023-03-26T04:37:22.488Z,3.90
2023-03-26T04:41:36.023Z,3.58
2023-03-26T04:45:41.816Z,3.72
2023-03-26T04:49:44.446Z,3.58
2023-03-26T04:53:53.826Z,3.67
2023-03-26T04:58:05.988Z,3.70
2023-03-26T05:02:26.073Z,3.38
2023-03-26T05:06:34.235Z,3.40
2023-03-26T05:10:42.362Z,3.67
2023-03-26T05:14:49.690Z,3.72
2023-03-26T05:18:58.867Z,3.10
2023-03-26T05:23:07.340Z,3.20
2023-03-26T05:27:16.943Z,2.92
2023-03-26T05:31:21.144Z,2.85
2023-03-26T05:35:25.551Z,2.88
2023-03-26T05:39:29.812Z,2.30
2023-03-26T05:43:53.654Z,2.33
2023-03-26T05:48:01.450Z,2.20
2023-03-26T05:52:04.248Z,2.65
2023-03-26T05:56:25.284Z,2.17
2023-03-26T06:00:48.520Z,2.05
2023-03-26T06:04:57.478Z,2.00
2023-03-26T06:09:11.990Z,1.85
2023-03-26T06:13:16.138Z,1.67
2023-03-26T06:17:20.548Z,2.10
2023-03-26T06:21:45.785Z,2.00
2023-03-26T06:25:54.239Z,2.22
2023-03-26T06:30:08.020Z,2.35
2023-03-26T06:34:17.142Z,2.20
2023-03-26T06:38:19.900Z,2.38
2023-03-26T06:42:22.597Z,2.38
2023-03-26T06:47:03.783Z,2.47
2023-03-26T06:51:27.599Z,2.30
2023-03-26T06:55:53.937Z,2.10
2023-03-26T07:00:16.162Z,2.25
2023-03-26T07:04:37.253Z,2.00
2023-03-26T07:08:59.804Z,2.30
2023-03-26T07:13:37.750Z,2.00
2023-03-26T07:18:18.167Z,2.00
2023-03-26T07:22:23.398Z,2.17
2023-03-26T07:27:00.240Z,2.42
2023-03-26T07:31:27.195Z,2.80
2023-03-26T07:35:54.678Z,2.30
2023-03-26T07:40:18.606Z,2.97
2023-03-26T07:44:53.516Z,3.03
2023-03-26T07:49:12.998Z,2.67
2023-03-26T07:53:34.725Z,2.53
2023-03-26T07:58:12.554Z,2.25
2023-03-26T08:02:47.538Z,2.45
2023-03-26T08:07:18.916Z,2.90
2023-03-26T08:11:54.204Z,2.47
2023-03-26T08:16:06.556Z,2.50
2023-03-26T08:20:21.083Z,2.40
2023-03-26T08:24:33.023Z,3.20
2023-03-26T08:28:48.534Z,2.70
2023-03-26T08:32:56.562Z,2.88
2023-03-26T08:37:01.498Z,3.53
2023-03-26T08:41:33.116Z,2.67
2023-03-26T08:46:19.711Z,2.60
2023-03-26T08:50:47.603Z,2.70
2023-03-26T08:55:28.361Z,2.88
2023-03-26T08:59:56.766Z,2.70
2023-03-26T09:04:36.754Z,2.60
2023-03-26T09:09:19.958Z,3.20
2023-03-26T09:13:53.726Z,2.90
2023-03-26T09:18:30.800Z,2.60
2023-03-26T09:22:51.281Z,2.83
2023-03-26T09:27:01.500Z,2.78
2023-03-26T09:31:36.330Z,3.08
2023-03-26T09:36:01.266Z,3.20
2023-03-26T09:40:17.414Z,2.53
2023-03-26T09:44:40.024Z,2.80
2023-03-26T09:49:07.035Z,3.03
2023-03-26T09:53:37.271Z,2.47
2023-03-26T09:58:00.237Z,3.55
2023-03-26T10:02:18.036Z,2.67
2023-03-26T10:06:37.525Z,3.08
2023-03-26T10:10:48.935Z,2.65
2023-03-26T10:15:02.745Z,3.30
2023-03-26T10:19:22.048Z,2.88
2023-03-26T10:23:48.192Z,2.40
2023-03-26T10:28:01.324Z,3.20
2023-03-26T10:32:18.638Z,2.72
2023-03-26T10:36:30.785Z,2.53
2023-03-26T10:40:43.713Z,2.63
2023-03-26T10:45:14.118Z,2.38
2023-03-26T10:49:52.210Z,2.33
2023-03-26T10:53:57.937Z,2.63
2023-03-26T10:58:14.219Z,2.60
2023-03-26T11:02:30.397Z,3.20
2023-03-26T11:06:41.720Z,2.55
2023-03-26T11:10:51.972Z,2.83
2023-03-26T11:15:03.305Z,2.92
2023-03-26T11:19:13.813Z,2.20
2023-03-26T11:23:27.468Z,2.83
2023-03-26T11:27:42.994Z,2.30
2023-03-26T11:31:57.821Z,2.25
2023-03-26T11:36:06.911Z,2.20
2023-03-26T11:40:15.516Z,2.28
2023-03-26T11:44:22.555Z,1.42
2023-03-26T11:48:31.904Z,0.90
2023-03-26T11:52:34.536Z,1.20
2023-03-26T11:57:05.435Z,1.13
2023-03-26T12:01:15.300Z,1.88
2023-03-26T12:05:22.054Z,1.63
2023-03-26T12:09:25.757Z,1.95
2023-03-26T12:13:36.530Z,1.48
2023-03-26T12:17:42.021Z,1.90
2023-03-26T12:21:49.563Z,1.92
2023-03-26T12:26:11.980Z,1.80
2023-03-26T12:30:23.039Z,1.83
2023-03-26T12:34:34.819Z,2.17
2023-03-26T12:38:40.652Z,1.90
2023-03-26T12:44:48.737Z,1.60
2023-03-26T12:47:58.828Z,1.70
2023-03-26T12:51:44.760Z,1.35
2023-03-26T12:56:01.260Z,1.45
2023-03-26T13:00:21.343Z,1.38
2023-03-26T13:05:02.207Z,1.60
2023-03-26T13:09:25.369Z,1.60
2023-03-26T13:13:47.560Z,1.48
2023-03-26T13:18:04.204Z,1.10
2023-03-26T13:22:19.877Z,1.60
2023-03-26T13:26:37.456Z,1.10
2023-03-26T13:30:48.147Z,1.02
2023-03-26T13:35:07.434Z,1.30
2023-03-26T13:39:28.583Z,1.20
2023-03-26T13:43:38.987Z,0.88
2023-03-26T13:47:47.955Z,0.82
2023-03-26T13:51:57.179Z,0.70
2023-03-26T13:56:01.145Z,0.75
2023-03-26T14:00:07.193Z,0.88
2023-03-26T14:04:22.759Z,0.98
2023-03-26T14:08:32.825Z,0.80
2023-03-26T14:12:49.047Z,0.90
2023-03-26T14:16:59.910Z,0.98
2023-03-26T14:21:19.043Z,0.70
2023-03-26T14:25:33.774Z,0.80
2023-03-26T14:29:56.227Z,0.80
2023-03-26T14:34:13.764Z,1.15
2023-03-26T14:38:44.919Z,1.10
2023-03-26T14:42:56.492Z,1.20
2023-03-26T14:47:14.472Z,1.20
2023-03-26T14:51:34.575Z,0.93
2023-03-26T14:56:13.184Z,0.68
2023-03-26T15:00:38.215Z,0.80
2023-03-26T15:09:31.231Z,0.73
2023-03-26T15:14:01.074Z,0.95
2023-03-26T15:18:58.209Z,1.25
2023-03-26T15:23:33.471Z,1.25
2023-03-26T15:27:53.931Z,0.80
2023-03-26T15:32:25.738Z,0.88
2023-03-26T15:36:50.845Z,1.35
2023-03-26T15:41:05.087Z,0.77
2023-03-26T15:45:27.495Z,0.90
2023-03-26T15:49:41.854Z,0.98
2023-03-26T15:53:50.887Z,1.20
2023-03-26T15:58:01.443Z,1.00
2023-03-26T16:02:17.529Z,0.70
2023-03-26T16:06:30.974Z,0.70
2023-03-26T16:14:47.229Z,0.82
2023-03-26T16:18:56.422Z,0.70
2023-03-26T16:23:03.511Z,1.00
2023-03-26T16:27:23.338Z,1.38
2023-03-26T16:31:36.846Z,1.00
2023-03-26T16:36:07.138Z,0.75
2023-03-26T16:40:34.153Z,0.77
2023-03-26T16:44:45.306Z,1.02
2023-03-26T16:48:56.787Z,0.80
2023-03-26T16:53:09.468Z,0.85
2023-03-26T16:57:24.800Z,1.10
2023-03-26T17:01:41.403Z,1.15
2023-03-26T17:05:59.037Z,2.50
2023-03-26T17:10:14.157Z,1.35
2023-03-26T17:14:32.261Z,1.30
2023-03-26T17:18:44.151Z,2.40
2023-03-26T17:22:52.492Z,1.70
2023-03-26T17:27:11.576Z,1.48
2023-03-26T17:31:26.306Z,1.80
2023-03-26T17:35:41.729Z,1.77
2023-03-26T17:40:35.369Z,1.95
2023-03-26T17:44:42.436Z,1.90
2023-03-26T17:48:51.250Z,1.40
2023-03-26T17:52:57.980Z,1.38
2023-03-26T17:57:04.070Z,1.30
2023-03-26T18:01:18.676Z,1.55
2023-03-26T18:05:25.514Z,1.70
2023-03-26T18:09:41.883Z,1.60
2023-03-26T18:14:31.041Z,1.50
2023-03-26T18:18:37.829Z,1.50
2023-03-26T18:22:41.904Z,1.70
2023-03-26T18:26:47.750Z,1.83
2023-03-26T18:30:51.032Z,1.70
2023-03-26T18:34:58.176Z,1.80
2023-03-26T18:39:04.800Z,1.90
2023-03-26T18:43:19.606Z,2.00
2023-03-26T18:47:32.269Z,2.08
2023-03-26T18:55:51.972Z,2.42
2023-03-26T18:59:56.488Z,1.95
2023-03-26T19:04:02.074Z,2.00
2023-03-26T19:08:06.625Z,2.35
2023-03-26T19:12:18.638Z,2.63
2023-03-26T19:16:25.027Z,2.70
2023-03-26T19:20:30.004Z,2.47
2023-03-26T19:24:32.834Z,1.67
2023-03-26T19:28:40.326Z,1.80
2023-03-26T19:32:53.592Z,2.75
2023-03-26T19:37:00.832Z,2.10
2023-03-26T19:41:03.388Z,2.05
2023-03-26T19:45:16.672Z,2.63
2023-03-26T19:49:28.935Z,2.60
2023-03-26T19:53:33.132Z,2.10
2023-03-26T19:57:36.300Z,2.20
2023-03-26T20:01:40.238Z,2.55
2023-03-26T20:05:43.300Z,2.08
2023-03-26T20:09:46.232Z,1.70
2023-03-26T20:13:49.505Z,2.03
2023-03-26T20:17:54.507Z,1.88
2023-03-26T20:21:57.178Z,2.00
2023-03-26T20:25:59.749Z,2.20
2023-03-26T20:30:02.308Z,1.50
2023-03-26T20:34:07.520Z,1.17
2023-03-26T20:38:10.323Z,2.28
2023-03-26T20:42:15.798Z,1.45
2023-03-26T20:46:20.267Z,1.45
2023-03-26T20:50:24.573Z,2.00
2023-03-26T20:54:29.571Z,1.40
2023-03-26T20:58:32.519Z,1.65
